Time;durP1;ratioP1;P1;durP2;ratioP2;P2;SDS_P1;SDS_P2;PMS_P1;PMS_P2;Temp;Humidity;BMP_temperature;BMP_pressure;BME280_temperature;BME280_humidity;BME280_pressure;Samples;Min_cycle;Max_cycle;Signal;HPM_P1;HPM_P2
2021/04/23 00:00:34;;;;;;;2.10;0.50;;;8.50;90.40;;;;;;5095439;28;20425;-64
2021/04/23 00:03:07;;;;;;;1.10;0.50;;;8.50;90.80;;;;;;5096480;28;20414;-64
2021/04/23 00:05:34;;;;;;;1.67;0.60;;;8.40;91.80;;;;;;5095851;28;20831;-64
2021/04/23 00:08:02;;;;;;;0.90;0.50;;;8.50;92.50;;;;;;5096142;28;20433;-64
2021/04/23 00:10:28;;;;;;;1.30;0.50;;;8.60;92.10;;;;;;5095868;28;20461;-64
2021/04/23 00:12:54;;;;;;;1.10;0.50;;;8.40;91.90;;;;;;5095275;28;20472;-64
2021/04/23 00:15:23;;;;;;;1.80;0.50;;;8.40;92.90;;;;;;5096232;28;20453;-64
2021/04/23 00:17:49;;;;;;;2.90;0.50;;;8.30;92.60;;;;;;5096093;28;20442;-64
2021/04/23 00:20:17;;;;;;;1.45;0.43;;;8.30;92.60;;;;;;5096081;28;20441;-64
2021/04/23 00:22:45;;;;;;;1.42;0.40;;;8.30;92.60;;;;;;5096295;28;20442;-65
2021/04/23 00:25:12;;;;;;;0.80;0.50;;;8.30;93.10;;;;;;5095911;28;20431;-64
2021/04/23 00:27:41;;;;;;;1.60;0.60;;;8.30;93.60;;;;;;5095925;28;20418;-63
2021/04/23 00:30:09;;;;;;;1.40;0.50;;;8.30;94.00;;;;;;5096287;28;20433;-64
2021/04/23 00:32:54;;;;;;;0.90;0.50;;;8.30;94.20;;;;;;5096193;28;20434;-63
2021/04/23 00:35:22;;;;;;;1.45;0.60;;;8.30;94.30;;;;;;5096516;28;20442;-63
2021/04/23 00:37:50;;;;;;;1.40;0.50;;;8.30;94.70;;;;;;5095935;28;20851;-64
2021/04/23 00:40:19;;;;;;;1.20;0.60;;;8.40;94.80;;;;;;5096236;28;20465;-64
2021/04/23 00:42:46;;;;;;;3.10;0.50;;;8.50;94.50;;;;;;5095337;28;20413;-63
2021/04/23 00:45:14;;;;;;;0.90;0.50;;;8.50;95.00;;;;;;5096007;28;20426;-63
2021/04/23 00:47:43;;;;;;;1.42;0.40;;;8.40;94.40;;;;;;5095641;28;20461;-63
2021/04/23 00:50:12;;;;;;;1.42;0.47;;;8.30;94.80;;;;;;5095289;28;20469;-64
2021/04/23 00:52:38;;;;;;;0.70;0.50;;;8.30;96.00;;;;;;5095731;28;20453;-63
2021/04/23 00:55:07;;;;;;;2.28;0.50;;;8.30;96.20;;;;;;5095531;28;20499;-63
2021/04/23 00:57:34;;;;;;;2.05;0.43;;;8.20;96.30;;;;;;5095462;28;20461;-63
2021/04/23 01:00:00;;;;;;;1.50;0.50;;;8.20;97.00;;;;;;5095701;28;20426;-64
2021/04/23 01:02:27;;;;;;;1.13;0.50;;;8.20;97.50;;;;;;5094461;28;20510;-63
2021/04/23 01:04:53;;;;;;;1.50;0.50;;;8.20;97.60;;;;;;5095276;28;20461;-64
2021/04/23 01:07:20;;;;;;;1.08;0.50;;;8.20;98.10;;;;;;5094631;28;20737;-63
2021/04/23 01:09:46;;;;;;;1.20;0.60;;;8.10;98.20;;;;;;5094793;28;20512;-64
2021/04/23 01:12:13;;;;;;;1.60;0.47;;;8.00;98.60;;;;;;5094387;28;22986;-64
2021/04/23 01:14:41;;;;;;;1.70;0.60;;;8.10;99.40;;;;;;5093918;28;20514;-63
2021/04/23 01:17:08;;;;;;;0.70;0.40;;;8.20;98.90;;;;;;5094949;28;20425;-63
2021/04/23 01:19:36;;;;;;;0.90;0.50;;;8.10;99.00;;;;;;5094401;28;20433;-64
2021/04/23 01:22:03;;;;;;;0.90;0.60;;;8.00;99.40;;;;;;5092192;28;20425;-63
2021/04/23 01:24:29;;;;;;;1.10;0.50;;;7.90;99.60;;;;;;5090460;28;20786;-63
2021/04/23 01:26:57;;;;;;;1.08;0.52;;;7.90;99.90;;;;;;5089367;28;20491;-63
2021/04/23 01:29:25;;;;;;;1.00;0.50;;;7.90;99.90;;;;;;5087971;28;20461;-63
2021/04/23 01:31:54;;;;;;;2.25;0.50;;;7.90;99.90;;;;;;5088730;28;20730;-63
2021/04/23 01:34:25;;;;;;;0.70;0.60;;;8.00;99.90;;;;;;5090811;28;20453;-64
2021/04/23 01:36:53;;;;;;;0.82;0.50;;;7.90;99.90;;;;;;5090896;28;20429;-63
2021/04/23 01:39:24;;;;;;;0.90;0.50;;;7.80;99.90;;;;;;5091119;28;20454;-64
2021/04/23 01:41:52;;;;;;;1.20;0.50;;;7.70;99.90;;;;;;5091869;28;20965;-62
2021/04/23 01:44:21;;;;;;;1.10;0.50;;;7.70;99.90;;;;;;5092927;28;20464;-62
2021/04/23 01:46:48;;;;;;;1.20;0.50;;;7.70;99.90;;;;;;5093707;28;20519;-63
2021/04/23 01:49:17;;;;;;;0.88;0.45;;;7.80;99.90;;;;;;5093896;28;20861;-62
2021/04/23 01:51:47;;;;;;;0.80;0.50;;;7.70;99.90;;;;;;5094865;28;20460;-62
2021/04/23 01:54:14;;;;;;;2.00;0.50;;;7.70;99.90;;;;;;5094677;28;20434;-62
2021/04/23 01:56:42;;;;;;;2.80;0.50;;;7.60;99.90;;;;;;5094973;28;20876;-62
2021/04/23 01:59:09;;;;;;;1.50;0.60;;;7.60;99.90;;;;;;5094784;28;20429;-63
2021/04/23 02:01:36;;;;;;;0.90;0.50;;;7.50;99.90;;;;;;5094601;28;20438;-63
2021/04/23 02:04:04;;;;;;;1.33;1.00;;;7.50;99.90;;;;;;5094416;28;20433;-62
2021/04/23 02:06:31;;;;;;;1.73;0.50;;;7.50;99.90;;;;;;5094710;28;20826;-62
2021/04/23 02:08:57;;;;;;;0.80;0.50;;;7.50;99.90;;;;;;5094217;28;20540;-62
2021/04/23 02:11:26;;;;;;;1.60;0.45;;;7.40;99.90;;;;;;5094561;28;20418;-62
2021/04/23 02:13:55;;;;;;;1.00;0.50;;;7.40;99.90;;;;;;5093975;28;20440;-62
2021/04/23 02:16:23;;;;;;;2.00;0.70;;;7.30;99.90;;;;;;5094462;28;20744;-62
2021/04/23 02:18:49;;;;;;;1.13;0.52;;;7.30;99.90;;;;;;5094102;28;20849;-62
2021/04/23 02:21:16;;;;;;;1.00;0.60;;;7.30;99.90;;;;;;5094373;28;20433;-62
2021/04/23 02:23:45;;;;;;;0.90;0.50;;;7.40;99.90;;;;;;5094280;28;20426;-62
2021/04/23 02:26:12;;;;;;;2.83;0.50;;;7.50;99.90;;;;;;5094509;28;20503;-62
2021/04/23 02:28:38;;;;;;;1.50;0.50;;;7.50;99.90;;;;;;5094101;28;20829;-63
2021/04/23 02:31:08;;;;;;;0.80;0.50;;;7.30;99.90;;;;;;5094354;28;20465;-62
2021/04/23 02:33:35;;;;;;;1.60;0.50;;;7.20;99.90;;;;;;5094352;28;20514;-62
2021/04/23 02:36:02;;;;;;;1.70;0.60;;;7.10;99.90;;;;;;5097554;28;20721;-62
2021/04/23 02:38:31;;;;;;;2.15;0.50;;;7.00;99.90;;;;;;5097763;28;20473;-62
2021/04/23 02:40:58;;;;;;;1.90;0.60;;;7.00;99.90;;;;;;5098098;28;20531;-62
2021/04/23 02:43:27;;;;;;;1.90;0.57;;;7.00;99.90;;;;;;5097802;28;20898;-62
2021/04/23 02:45:54;;;;;;;1.10;0.50;;;6.90;99.90;;;;;;5098196;28;20446;-62
2021/04/23 02:48:24;;;;;;;1.60;0.50;;;7.10;99.90;;;;;;5097917;28;20449;-62
2021/04/23 02:50:55;;;;;;;2.60;0.60;;;7.10;99.90;;;;;;5097804;28;20449;-62
2021/04/23 02:53:22;;;;;;;1.20;0.50;;;7.10;99.90;;;;;;5097852;28;20478;-62
2021/04/23 02:55:48;;;;;;;1.95;0.57;;;7.00;99.90;;;;;;5098216;28;20442;-61
2021/04/23 02:58:18;;;;;;;0.90;0.50;;;6.90;99.90;;;;;;5097267;28;20476;-62
2021/04/23 03:00:46;;;;;;;1.35;0.50;;;6.80;99.90;;;;;;5097555;28;20883;-62
2021/04/23 03:03:13;;;;;;;2.20;0.50;;;6.90;99.90;;;;;;5097326;28;20420;-62
2021/04/23 03:05:44;;;;;;;2.28;0.50;;;6.90;99.90;;;;;;5097073;28;20453;-62
2021/04/23 03:08:12;;;;;;;1.20;0.60;;;6.90;99.90;;;;;;5097957;28;20847;-62
2021/04/23 03:10:41;;;;;;;2.38;0.70;;;6.90;99.90;;;;;;5097539;28;20475;-62
2021/04/23 03:13:11;;;;;;;2.90;0.60;;;6.90;99.90;;;;;;5097738;28;20514;-61
2021/04/23 03:15:38;;;;;;;1.58;0.50;;;6.80;99.90;;;;;;5097590;28;20867;-62
2021/04/23 03:18:05;;;;;;;1.80;0.60;;;6.80;99.90;;;;;;5097324;28;20464;-62
2021/04/23 03:20:31;;;;;;;1.10;0.60;;;6.70;99.90;;;;;;5097258;28;20430;-61
2021/04/23 03:22:59;;;;;;;3.40;0.70;;;6.70;99.90;;;;;;5097441;28;20442;-61
2021/04/23 03:25:27;;;;;;;0.90;0.50;;;6.80;99.90;;;;;;5097374;28;20433;-61
2021/04/23 03:27:54;;;;;;;1.60;0.50;;;6.90;99.90;;;;;;5096607;28;20461;-62
2021/04/23 03:30:25;;;;;;;1.70;0.55;;;6.90;99.90;;;;;;5096479;28;20426;-62
2021/04/23 03:32:51;;;;;;;2.38;0.60;;;6.80;99.90;;;;;;5096226;28;20434;-62
2021/04/23 03:35:18;;;;;;;1.30;0.60;;;6.70;99.90;;;;;;5096424;28;20465;-62
2021/04/23 03:37:45;;;;;;;0.93;0.50;;;6.60;99.90;;;;;;5095825;28;20461;-61
2021/04/23 03:40:16;;;;;;;1.55;0.60;;;6.60;99.90;;;;;;5095094;28;20798;-61
2021/04/23 03:42:42;;;;;;;1.13;0.50;;;6.50;99.90;;;;;;5095717;28;20510;-61
2021/04/23 03:45:12;;;;;;;1.50;0.60;;;6.40;99.90;;;;;;5095636;28;20430;-62
2021/04/23 03:47:39;;;;;;;1.92;0.80;;;6.40;99.90;;;;;;5094299;28;20869;-61
2021/04/23 03:50:07;;;;;;;1.17;0.50;;;6.50;99.90;;;;;;5094451;28;20864;-61
2021/04/23 03:52:34;;;;;;;1.40;0.63;;;6.60;99.90;;;;;;5095138;28;20433;-61
2021/04/23 03:55:01;;;;;;;4.55;0.68;;;6.60;99.90;;;;;;5095780;28;20457;-61
2021/04/23 03:57:29;;;;;;;1.77;0.57;;;6.50;99.90;;;;;;5095614;28;20470;-61
2021/04/23 03:59:55;;;;;;;1.00;0.60;;;6.40;99.90;;;;;;5096043;28;20434;-61
2021/04/23 04:02:21;;;;;;;1.40;0.50;;;6.50;99.90;;;;;;5095381;28;20795;-61
2021/04/23 04:04:48;;;;;;;0.80;0.50;;;6.50;99.90;;;;;;5095948;28;20465;-62
2021/04/23 04:07:14;;;;;;;1.80;0.50;;;6.50;99.90;;;;;;5096268;28;20442;-62
2021/04/23 04:09:41;;;;;;;1.50;0.80;;;6.40;99.90;;;;;;5096575;28;20504;-62
2021/04/23 04:12:08;;;;;;;1.60;0.60;;;6.30;99.90;;;;;;5096706;28;20422;-62
2021/04/23 04:14:35;;;;;;;3.50;1.00;;;6.20;99.90;;;;;;5096022;28;20501;-62
2021/04/23 04:17:01;;;;;;;1.38;0.80;;;6.30;99.90;;;;;;5096600;28;20468;-61
2021/04/23 04:19:28;;;;;;;1.35;0.50;;;6.40;99.90;;;;;;5089363;28;20686;-61
2021/04/23 04:21:54;;;;;;;1.13;0.57;;;6.50;99.90;;;;;;5092549;28;20479;-61
2021/04/23 04:24:21;;;;;;;1.95;0.70;;;6.60;99.90;;;;;;5095046;28;20468;-61
2021/04/23 04:26:47;;;;;;;1.20;0.60;;;6.40;99.90;;;;;;5095987;28;20421;-61
2021/04/23 04:29:16;;;;;;;0.98;0.57;;;6.40;99.90;;;;;;5095807;28;20476;-61
2021/04/23 04:31:44;;;;;;;3.20;0.65;;;6.50;99.90;;;;;;5095586;28;20542;-58
2021/04/23 04:34:10;;;;;;;1.50;0.63;;;6.50;99.90;;;;;;5094870;28;20545;-59
2021/04/23 04:36:36;;;;;;;1.50;0.60;;;6.50;99.90;;;;;;5095260;28;20917;-59
2021/04/23 04:39:05;;;;;;;1.48;0.60;;;6.50;99.90;;;;;;5095401;28;20422;-59
2021/04/23 04:41:32;;;;;;;2.38;0.60;;;6.50;99.90;;;;;;5094553;28;20483;-60
2021/04/23 04:43:58;;;;;;;1.30;0.60;;;6.50;99.90;;;;;;5078541;28;20517;-60
2021/04/23 04:46:24;;;;;;;1.90;0.60;;;6.40;99.90;;;;;;5073096;28;20933;-59
2021/04/23 04:48:52;;;;;;;2.50;0.70;;;6.40;99.90;;;;;;5083309;28;20430;-59
2021/04/23 04:51:18;;;;;;;3.00;0.70;;;6.50;99.90;;;;;;5093677;28;20454;-63
2021/04/23 04:53:45;;;;;;;1.40;0.60;;;6.50;99.90;;;;;;5093369;28;20468;-63
2021/04/23 04:56:12;;;;;;;1.58;0.70;;;6.50;99.90;;;;;;5093533;28;20464;-64
2021/04/23 04:58:41;;;;;;;1.40;0.70;;;6.40;99.90;;;;;;5093296;28;20432;-63
2021/04/23 05:01:08;;;;;;;0.90;0.50;;;6.40;99.90;;;;;;5093182;28;20450;-63
2021/04/23 05:03:36;;;;;;;2.75;0.80;;;6.40;99.90;;;;;;5092458;28;20469;-63
2021/04/23 05:06:04;;;;;;;2.08;0.70;;;6.40;99.90;;;;;;5093514;28;20482;-60
2021/04/23 05:08:30;;;;;;;1.00;0.60;;;6.40;99.90;;;;;;5093806;28;20500;-63
2021/04/23 05:10:57;;;;;;;1.80;0.80;;;6.40;99.90;;;;;;5093181;28;20812;-64
2021/04/23 05:13:23;;;;;;;1.00;0.60;;;6.40;99.90;;;;;;5073402;28;20781;-63
2021/04/23 05:15:50;;;;;;;1.40;0.60;;;6.40;99.90;;;;;;5092230;28;20429;-63
2021/04/23 05:18:16;;;;;;;2.67;0.70;;;6.40;99.90;;;;;;5087407;28;20451;-63
2021/04/23 05:20:43;;;;;;;1.80;0.63;;;6.50;99.90;;;;;;5085126;28;20479;-63
2021/04/23 05:23:10;;;;;;;1.48;0.80;;;6.40;99.90;;;;;;5085364;28;20459;-63
2021/04/23 05:25:36;;;;;;;1.40;0.60;;;6.40;99.90;;;;;;5071518;28;20518;-63
2021/04/23 05:28:05;;;;;;;1.60;0.60;;;6.40;99.90;;;;;;5085676;28;20789;-63
2021/04/23 05:30:33;;;;;;;3.08;0.60;;;6.80;99.90;;;;;;5093086;28;20482;-63
2021/04/23 05:33:01;;;;;;;3.42;0.70;;;7.20;99.90;;;;;;5093211;28;20811;-63
2021/04/23 05:35:29;;;;;;;2.30;0.80;;;7.40;99.90;;;;;;5083196;28;20435;-62
2021/04/23 05:37:57;;;;;;;1.30;0.60;;;7.60;99.90;;;;;;5093234;28;20422;-63
2021/04/23 05:40:27;;;;;;;2.10;0.80;;;7.70;99.90;;;;;;5090435;28;20887;-63
2021/04/23 05:42:53;;;;;;;1.60;0.70;;;7.70;99.90;;;;;;5086471;28;20475;-63
2021/04/23 05:45:21;;;;;;;1.80;0.70;;;7.60;99.90;;;;;;5074844;28;20459;-63
2021/04/23 05:47:47;;;;;;;1.40;0.70;;;7.40;99.90;;;;;;5087901;28;20462;-63
2021/04/23 05:50:15;;;;;;;1.80;0.75;;;7.30;99.90;;;;;;5092502;28;20433;-63
2021/04/23 05:52:43;;;;;;;1.83;0.73;;;7.20;99.90;;;;;;5092000;28;20444;-63
2021/04/23 05:55:12;;;;;;;1.58;0.63;;;7.20;99.90;;;;;;5076691;28;20747;-63
2021/04/23 05:57:40;;;;;;;2.30;0.70;;;7.60;99.90;;;;;;5090401;28;20429;-63
2021/04/23 06:00:08;;;;;;;2.40;0.80;;;7.90;99.90;;;;;;5091598;28;20516;-63
2021/04/23 06:02:35;;;;;;;1.85;0.80;;;8.00;99.90;;;;;;5091616;28;20429;-63
2021/04/23 06:05:01;;;;;;;1.52;0.80;;;7.90;99.90;;;;;;5085852;28;20474;-62
2021/04/23 06:07:28;;;;;;;3.58;2.40;;;7.80;99.90;;;;;;5083915;28;20453;-63
2021/04/23 06:09:54;;;;;;;114.38;63.80;;;7.50;99.90;;;;;;5090117;28;20575;-63
2021/04/23 06:12:21;;;;;;;4.22;1.85;;;7.70;99.90;;;;;;5095362;28;20449;-63
2021/04/23 06:14:48;;;;;;;3.90;0.80;;;7.50;99.90;;;;;;5095904;28;20438;-63
2021/04/23 06:17:15;;;;;;;2.10;1.00;;;7.30;99.90;;;;;;5092438;28;20478;-62
2021/04/23 06:19:41;;;;;;;4.53;1.00;;;7.10;99.90;;;;;;5072741;28;20810;-62
2021/04/23 06:22:08;;;;;;;1.90;0.93;;;7.10;99.90;;;;;;5092999;28;20471;-62
2021/04/23 06:24:35;;;;;;;3.00;0.90;;;7.10;99.90;;;;;;5092216;28;20436;-61
2021/04/23 06:27:01;;;;;;;1.85;0.80;;;7.10;99.90;;;;;;5092101;28;20770;-61
2021/04/23 06:29:28;;;;;;;2.07;0.87;;;7.10;99.90;;;;;;5090424;28;20490;-61
2021/04/23 06:31:56;;;;;;;2.58;0.90;;;7.30;99.90;;;;;;5073634;28;20424;-61
2021/04/23 06:34:22;;;;;;;3.00;0.90;;;7.50;99.90;;;;;;5075216;28;20458;-61
2021/04/23 06:36:49;;;;;;;4.10;0.90;;;7.60;99.90;;;;;;5074719;28;20740;-61
2021/04/23 06:39:17;;;;;;;2.75;1.10;;;7.90;99.90;;;;;;5073486;28;20450;-61
2021/04/23 06:41:44;;;;;;;4.78;1.00;;;8.10;99.90;;;;;;5094992;28;20509;-61
2021/04/23 06:44:11;;;;;;;3.08;1.00;;;8.40;99.90;;;;;;5090613;28;20496;-62
2021/04/23 06:46:38;;;;;;;2.03;0.90;;;8.50;99.90;;;;;;5085163;28;20423;-62
2021/04/23 06:49:06;;;;;;;2.70;1.00;;;8.40;99.90;;;;;;5077796;28;20478;-61
2021/04/23 06:51:33;;;;;;;5.00;1.08;;;8.40;99.90;;;;;;5088694;28;20445;-60
2021/04/23 06:53:59;;;;;;;4.10;1.40;;;8.50;99.90;;;;;;5081053;28;20881;-60
2021/04/23 06:56:25;;;;;;;3.10;1.00;;;8.50;99.90;;;;;;5078727;28;20419;-59
2021/04/23 06:58:52;;;;;;;2.70;0.98;;;8.70;99.90;;;;;;5072545;28;20528;-59
2021/04/23 07:01:18;;;;;;;1.90;0.90;;;8.90;99.90;;;;;;5073396;28;20928;-61
2021/04/23 07:03:45;;;;;;;3.15;0.98;;;9.10;99.90;;;;;;5073060;28;20427;-62
2021/04/23 07:06:12;;;;;;;4.40;1.10;;;9.20;99.90;;;;;;5074304;28;20930;-60
2021/04/23 07:08:39;;;;;;;1.92;0.82;;;9.20;99.90;;;;;;5074441;28;20715;-60
2021/04/23 07:11:06;;;;;;;2.83;0.90;;;9.00;99.90;;;;;;5073620;28;20449;-60
2021/04/23 07:13:33;;;;;;;3.10;1.00;;;9.00;99.90;;;;;;5074395;28;20501;-61
2021/04/23 07:16:00;;;;;;;4.10;1.00;;;9.10;99.90;;;;;;5074970;28;20426;-61
2021/04/23 07:18:27;;;;;;;2.83;1.15;;;9.30;99.90;;;;;;5073111;28;20473;-63
2021/04/23 07:20:54;;;;;;;1.80;1.00;;;9.50;99.90;;;;;;5070892;28;20419;-61
2021/04/23 07:23:21;;;;;;;2.63;0.90;;;9.50;99.90;;;;;;5071222;28;20415;-61
2021/04/23 07:25:47;;;;;;;2.50;0.90;;;9.60;99.90;;;;;;5073031;28;20423;-61
2021/04/23 07:28:14;;;;;;;2.70;1.00;;;9.70;99.90;;;;;;5073279;28;20464;-60
2021/04/23 07:30:42;;;;;;;2.30;0.90;;;9.80;99.90;;;;;;5073667;28;20888;-60
2021/04/23 07:33:12;;;;;;;2.53;0.90;;;9.70;99.90;;;;;;5079456;28;20432;-61
2021/04/23 07:35:40;;;;;;;12.63;6.28;;;9.70;99.90;;;;;;5080035;28;20462;-61
2021/04/23 07:38:06;;;;;;;1.67;0.80;;;9.90;99.90;;;;;;5092877;28;20413;-61
2021/04/23 07:40:34;;;;;;;3.17;0.90;;;10.10;99.90;;;;;;5091415;28;20508;-60
2021/04/23 07:43:00;;;;;;;2.20;0.80;;;10.20;99.90;;;;;;5095440;28;20460;-60
2021/04/23 07:45:28;;;;;;;1.90;0.80;;;10.30;99.90;;;;;;5093402;28;20426;-60
2021/04/23 07:47:55;;;;;;;3.10;0.90;;;10.30;99.90;;;;;;5091652;28;20815;-60
2021/04/23 07:50:24;;;;;;;2.80;1.00;;;10.40;99.90;;;;;;5092593;28;20483;-61
2021/04/23 07:52:52;;;;;;;2.17;0.82;;;10.40;99.90;;;;;;5092769;28;20441;-60
2021/04/23 07:55:20;;;;;;;3.05;0.75;;;10.40;99.90;;;;;;5092043;28;20515;-60
2021/04/23 07:57:48;;;;;;;2.65;0.70;;;10.30;99.90;;;;;;5091375;28;20449;-60
2021/04/23 08:00:17;;;;;;;1.80;0.80;;;10.20;99.90;;;;;;5092989;28;20503;-61
2021/04/23 08:02:44;;;;;;;1.73;0.70;;;10.40;99.90;;;;;;5093301;28;20421;-60
2021/04/23 08:05:13;;;;;;;2.10;0.80;;;10.50;99.90;;;;;;5093253;28;20429;-61
2021/04/23 08:07:40;;;;;;;1.60;0.70;;;10.60;99.90;;;;;;5092477;28;20421;-60
2021/04/23 08:10:09;;;;;;;3.17;0.80;;;10.80;99.90;;;;;;5089790;28;20761;-63
2021/04/23 08:12:35;;;;;;;2.72;0.85;;;10.90;99.90;;;;;;5092810;28;20432;-61
2021/04/23 08:15:03;;;;;;;2.35;0.80;;;10.90;99.90;;;;;;5091872;28;20441;-62
2021/04/23 08:17:30;;;;;;;2.20;0.80;;;11.00;99.90;;;;;;5093161;28;20425;-61
2021/04/23 08:19:56;;;;;;;4.40;0.90;;;10.90;99.90;;;;;;5093091;28;20810;-62
2021/04/23 08:22:23;;;;;;;2.65;0.90;;;11.00;99.90;;;;;;5094334;28;20422;-60
2021/04/23 08:24:49;;;;;;;2.45;0.98;;;11.40;99.90;;;;;;5093742;28;20458;-61
2021/04/23 08:27:16;;;;;;;2.13;0.80;;;11.60;99.90;;;;;;5092732;28;20421;-61
2021/04/23 08:29:42;;;;;;;3.58;0.90;;;11.80;99.90;;;;;;5092189;28;20483;-61
2021/04/23 08:32:10;;;;;;;5.07;0.90;;;12.00;99.30;;;;;;5091867;28;20418;-61
2021/04/23 08:34:36;;;;;;;3.05;0.90;;;12.00;99.30;;;;;;5092289;28;20548;-61
2021/04/23 08:37:03;;;;;;;1.60;0.80;;;12.20;98.40;;;;;;5092894;28;20410;-62
2021/04/23 08:39:29;;;;;;;3.53;0.80;;;12.40;98.10;;;;;;5093311;28;20471;-60
2021/04/23 08:41:56;;;;;;;2.28;0.80;;;12.60;97.20;;;;;;5089057;28;20848;-63
2021/04/23 08:44:22;;;;;;;1.48;0.90;;;12.60;96.20;;;;;;5091246;28;20469;-63
2021/04/23 08:46:50;;;;;;;3.28;1.00;;;12.60;95.30;;;;;;5073933;28;20890;-61
2021/04/23 08:49:18;;;;;;;1.63;1.20;;;12.60;95.60;;;;;;5079702;28;20437;-62
2021/04/23 08:51:45;;;;;;;2.22;0.98;;;12.50;94.40;;;;;;5090713;28;20424;-61
2021/04/23 08:54:12;;;;;;;2.50;0.90;;;12.60;95.10;;;;;;5076692;28;20865;-60
2021/04/23 08:56:39;;;;;;;1.60;0.80;;;12.60;94.80;;;;;;5070907;28;20439;-61
2021/04/23 08:59:05;;;;;;;2.53;1.00;;;12.60;95.00;;;;;;5070253;28;20480;-62
2021/04/23 09:01:32;;;;;;;2.22;0.90;;;12.80;94.00;;;;;;5070887;28;20889;-59
2021/04/23 09:03:58;;;;;;;2.40;1.05;;;12.80;94.00;;;;;;5069535;28;20854;-59
2021/04/23 09:06:27;;;;;;;2.20;0.90;;;13.00;93.70;;;;;;5085597;28;20894;-61
2021/04/23 09:09:07;;;;;;;3.40;1.00;;;13.20;92.60;;;;;;5092041;28;20429;-61
2021/04/23 09:11:35;;;;;;;2.80;0.90;;;12.90;92.30;;;;;;5087885;28;20858;-60
2021/04/23 09:14:04;;;;;;;3.30;1.30;;;13.00;92.90;;;;;;5085836;28;20433;-61
2021/04/23 09:16:52;;;;;;;3.40;0.95;;;13.10;91.90;;;;;;5084178;28;20778;-60
2021/04/23 09:19:22;;;;;;;1.95;0.90;;;13.30;92.50;;;;;;5092354;28;20453;-60
2021/04/23 09:21:55;;;;;;;3.08;1.00;;;13.60;92.00;;;;;;5089828;28;20791;-61
2021/04/23 09:24:28;;;;;;;6.63;1.10;;;13.80;91.40;;;;;;5087023;28;20491;-62
2021/04/23 09:26:56;;;;;;;2.80;1.00;;;13.60;90.60;;;;;;5088743;28;20422;-61
2021/04/23 09:29:29;;;;;;;2.80;1.00;;;13.40;90.00;;;;;;5089230;28;20461;-61
2021/04/23 09:31:56;;;;;;;2.80;1.00;;;13.50;91.10;;;;;;5088017;28;20872;-60
2021/04/23 09:34:24;;;;;;;1.88;0.90;;;13.40;90.10;;;;;;5091486;28;20876;-60
2021/04/23 09:36:53;;;;;;;1.67;1.00;;;13.40;90.80;;;;;;5092801;28;20729;-59
2021/04/23 09:39:21;;;;;;;4.22;1.02;;;13.50;90.90;;;;;;5092839;28;20461;-61
2021/04/23 09:41:59;;;;;;;2.30;0.95;;;13.80;90.20;;;;;;5082676;28;20505;-61
2021/04/23 09:44:28;;;;;;;3.22;1.10;;;14.00;88.90;;;;;;5092628;28;20962;-61
2021/04/23 09:47:18;;;;;;;2.45;1.00;;;14.00;87.80;;;;;;5087205;28;20438;-60
2021/04/23 09:49:46;;;;;;;3.80;2.10;;;13.80;89.20;;;;;;5085067;28;20441;-59
2021/04/23 09:52:18;;;;;;;2.38;0.90;;;13.90;87.60;;;;;;5087225;28;20421;-59
2021/04/23 09:54:49;;;;;;;3.45;1.10;;;14.10;88.30;;;;;;5089445;28;20486;-59
2021/04/23 09:57:18;;;;;;;4.15;1.20;;;14.40;86.50;;;;;;5080722;28;20458;-60
2021/04/23 09:59:50;;;;;;;2.40;1.00;;;14.40;87.30;;;;;;5081916;28;20728;-60
2021/04/23 10:02:19;;;;;;;2.50;1.20;;;14.70;86.60;;;;;;5078495;28;20422;-59
2021/04/23 10:04:46;;;;;;;2.47;1.00;;;14.90;85.40;;;;;;5080774;28;20426;-59
2021/04/23 10:07:24;;;;;;;2.83;0.93;;;15.10;81.60;;;;;;5089948;28;20471;-59
2021/04/23 10:09:57;;;;;;;2.17;0.90;;;15.30;81.40;;;;;;5089652;28;20449;-61
2021/04/23 10:12:40;;;;;;;2.23;0.90;;;15.40;79.00;;;;;;5076749;28;20769;-60
2021/04/23 10:15:12;;;;;;;1.80;0.90;;;15.40;79.50;;;;;;5067139;28;20536;-59
2021/04/23 10:17:42;;;;;;;3.28;1.00;;;15.80;79.00;;;;;;5081391;28;20440;-72
2021/04/23 10:20:14;;;;;;;3.20;1.00;;;16.00;78.00;;;;;;5086931;28;20488;-74
2021/04/23 10:22:44;;;;;;;7.03;3.72;;;16.50;74.60;;;;;;5072346;28;20435;-72
2021/04/23 10:25:12;;;;;;;1.98;0.90;;;16.70;76.30;;;;;;5071512;28;20580;-70
2021/04/23 10:27:42;;;;;;;1.77;0.80;;;16.90;73.80;;;;;;5074340;28;20514;-70
2021/04/23 10:30:11;;;;;;;1.70;1.00;;;16.80;70.50;;;;;;5090442;28;20425;-71
2021/04/23 10:32:39;;;;;;;1.40;0.80;;;16.70;70.70;;;;;;5090584;28;20421;-71
2021/04/23 10:35:07;;;;;;;2.50;0.80;;;16.80;67.50;;;;;;5092577;28;20438;-68
2021/04/23 10:37:33;;;;;;;2.30;0.80;;;17.00;65.50;;;;;;5093173;28;20429;-71
2021/04/23 10:40:02;;;;;;;3.25;0.80;;;17.10;65.50;;;;;;5093875;28;20426;-68
2021/04/23 10:42:50;;;;;;;2.00;0.80;;;17.00;60.80;;;;;;5094459;28;20417;-72
2021/04/23 10:45:26;;;;;;;3.40;0.90;;;17.10;63.20;;;;;;5091197;28;20486;-71
2021/04/23 10:47:56;;;;;;;2.58;0.90;;;17.40;62.90;;;;;;5077754;28;20428;-72
2021/04/23 10:50:25;;;;;;;2.50;0.80;;;17.80;62.10;;;;;;5073507;28;20815;-73
2021/04/23 10:53:00;;;;;;;2.85;1.00;;;18.20;60.60;;;;;;5074046;28;20608;-71
2021/04/23 10:55:43;;;;;;;2.10;0.90;;;18.30;58.90;;;;;;5074546;28;20434;-70
2021/04/23 10:58:11;;;;;;;3.67;0.93;;;18.30;57.50;;;;;;5075896;28;20431;-72
2021/04/23 11:00:40;;;;;;;1.97;1.00;;;18.30;57.10;;;;;;5082954;28;20482;-71
2021/04/23 11:03:25;;;;;;;4.57;0.90;;;18.60;56.50;;;;;;5098847;28;20422;-68
2021/04/23 11:05:53;;;;;;;3.30;0.80;;;18.60;55.90;;;;;;5098928;28;20452;-71
2021/04/23 11:08:21;;;;;;;1.88;0.80;;;18.50;56.10;;;;;;5099121;28;20429;-69
2021/04/23 11:11:13;;;;;;;1.80;0.70;;;18.60;56.50;;;;;;5098595;28;20478;-69
2021/04/23 11:13:42;;;;;;;2.80;0.82;;;18.90;54.90;;;;;;5098527;28;20860;-70
2021/04/23 11:16:28;;;;;;;1.70;0.90;;;19.20;53.70;;;;;;5098882;28;20430;-70
2021/04/23 11:18:56;;;;;;;1.52;0.80;;;19.50;53.30;;;;;;5096432;28;20813;-70
2021/04/23 11:21:41;;;;;;;2.60;0.90;;;19.90;52.90;;;;;;5099544;28;20422;-67
2021/04/23 11:24:09;;;;;;;2.20;0.80;;;20.00;50.80;;;;;;5096761;28;20416;-68
2021/04/23 11:27:09;;;;;;;2.25;1.08;;;19.50;51.50;;;;;;5078366;28;20435;-67
2021/04/23 11:29:38;;;;;;;2.90;1.00;;;19.40;50.60;;;;;;5079017;28;20501;-70
2021/04/23 11:32:12;;;;;;;1.48;0.70;;;19.30;51.00;;;;;;5077896;28;20491;-68
2021/04/23 11:34:41;;;;;;;2.97;1.00;;;19.40;52.10;;;;;;5077953;28;20530;-68
2021/04/23 11:37:10;;;;;;;3.30;0.83;;;19.60;51.00;;;;;;5076489;28;20424;-66
2021/04/23 11:39:42;;;;;;;6.00;1.50;;;19.70;50.90;;;;;;5080901;28;20461;-69
2021/04/23 11:42:12;;;;;;;2.20;0.80;;;19.50;51.30;;;;;;5077685;28;20412;-64
2021/04/23 11:44:45;;;;;;;4.70;1.00;;;20.00;50.10;;;;;;5077010;28;20750;-66
2021/04/23 11:47:12;;;;;;;3.55;0.90;;;20.00;49.30;;;;;;5087289;28;20521;-66
2021/04/23 11:49:41;;;;;;;2.72;1.00;;;19.80;49.50;;;;;;5095459;28;20430;-65
2021/04/23 11:52:08;;;;;;;4.93;1.10;;;18.70;48.30;;;;;;5097116;28;20441;-67
2021/04/23 11:54:41;;;;;;;2.28;0.85;;;18.40;48.90;;;;;;5094662;28;20433;-67
2021/04/23 11:57:12;;;;;;;2.10;0.90;;;19.00;49.80;;;;;;5096430;28;20425;-66
2021/04/23 11:59:57;;;;;;;2.22;1.08;;;19.60;48.10;;;;;;5094682;28;20418;-66
2021/04/23 12:02:55;;;;;;;1.40;0.80;;;20.10;47.40;;;;;;5087517;28;20511;-61
2021/04/23 12:05:28;;;;;;;1.40;0.80;;;20.20;46.90;;;;;;5086077;28;20865;-62
2021/04/23 12:07:57;;;;;;;2.65;0.80;;;20.50;47.20;;;;;;5085047;28;20498;-62
2021/04/23 12:10:25;;;;;;;1.70;0.90;;;20.50;47.40;;;;;;5089312;28;20430;-62
2021/04/23 12:12:53;;;;;;;2.05;0.90;;;20.20;47.20;;;;;;5090910;28;20501;-61
2021/04/23 12:15:26;;;;;;;1.80;0.80;;;20.30;47.10;;;;;;5089836;28;20600;-62
2021/04/23 12:17:53;;;;;;;2.10;1.00;;;20.60;47.70;;;;;;5086148;28;20418;-62
2021/04/23 12:20:22;;;;;;;3.40;1.70;;;20.50;45.30;;;;;;5090845;28;20466;-63
2021/04/23 12:22:51;;;;;;;2.10;0.80;;;20.20;45.60;;;;;;5086374;28;20429;-62
2021/04/23 12:25:27;;;;;;;3.00;0.90;;;20.30;45.90;;;;;;5084600;28;20449;-62
2021/04/23 12:27:55;;;;;;;2.10;0.77;;;20.50;45.50;;;;;;5091226;28;20726;-62
2021/04/23 12:30:29;;;;;;;3.10;1.40;;;20.50;44.30;;;;;;5086733;28;20430;-63
2021/04/23 12:32:57;;;;;;;1.98;0.80;;;20.80;43.70;;;;;;5089529;28;20418;-63
2021/04/23 12:35:35;;;;;;;2.08;0.73;;;20.90;43.20;;;;;;5075596;28;20437;-61
2021/04/23 12:38:01;;;;;;;2.10;0.80;;;21.00;42.10;;;;;;5078211;28;20438;-62
2021/04/23 12:40:34;;;;;;;1.38;0.70;;;21.00;41.10;;;;;;5085890;28;20491;-62
2021/04/23 12:43:15;;;;;;;1.70;0.70;;;21.30;38.80;;;;;;5076791;28;20506;-60
2021/04/23 12:45:48;;;;;;;1.67;0.60;;;20.80;36.80;;;;;;5089176;28;20868;-61
2021/04/23 12:48:15;;;;;;;1.60;0.50;;;20.80;37.50;;;;;;5088151;28;20741;-61
2021/04/23 12:50:43;;;;;;;2.92;2.50;;;20.90;36.80;;;;;;5082307;28;20520;-61
2021/04/23 12:53:10;;;;;;;2.28;1.30;;;20.80;34.90;;;;;;5081246;28;20433;-61
2021/04/23 12:55:39;;;;;;;1.70;0.60;;;20.70;36.50;;;;;;5084351;28;20863;-61
2021/04/23 12:58:08;;;;;;;1.37;0.60;;;20.90;35.40;;;;;;5082101;28;21576;-63
2021/04/23 13:00:36;;;;;;;1.10;0.60;;;20.90;34.40;;;;;;5086091;28;20844;-61